sensor_id;sensor_type;location;lat;lon;timestamp;pressure;altitude;pressure_sealevel;temperature;humidity
9335;BME280;4706;41.844;26.082;2023-02-15T00:01:11;102108.34;;;5.94;56.56
9335;BME280;4706;41.844;26.082;2023-02-15T00:03:37;102094.16;;;6.03;56.49
9335;BME280;4706;41.844;26.082;2023-02-15T00:06:04;102106.28;;;6.19;56.32
9335;BME280;4706;41.844;26.082;2023-02-15T00:08:29;102108.69;;;6.27;56.03
9335;BME280;4706;41.844;26.082;2023-02-15T00:11:09;102103.72;;;6.24;55.60
9335;BME280;4706;41.844;26.082;2023-02-15T00:13:35;102104.84;;;6.17;55.29
9335;BME280;4706;41.844;26.082;2023-02-15T00:16:10;102103.19;;;6.16;56.13
9335;BME280;4706;41.844;26.082;2023-02-15T00:18:36;102101.28;;;6.16;56.45
9335;BME280;4706;41.844;26.082;2023-02-15T00:21:07;102103.81;;;6.18;56.58
9335;BME280;4706;41.844;26.082;2023-02-15T00:23:33;102109.41;;;6.23;56.49
9335;BME280;4706;41.844;26.082;2023-02-15T00:28:30;102103.84;;;6.29;56.99
9335;BME280;4706;41.844;26.082;2023-02-15T00:31:05;102118.56;;;6.28;56.79
9335;BME280;4706;41.844;26.082;2023-02-15T00:33:31;102115.72;;;6.35;57.09
9335;BME280;4706;41.844;26.082;2023-02-15T00:35:58;102110.38;;;6.28;57.18
9335;BME280;4706;41.844;26.082;2023-02-15T00:38:24;102124.66;;;6.42;57.06
9335;BME280;4706;41.844;26.082;2023-02-15T00:40:54;102117.41;;;6.48;56.88
9335;BME280;4706;41.844;26.082;2023-02-15T00:43:19;102121.94;;;6.54;57.07
9335;BME280;4706;41.844;26.082;2023-02-15T00:45:45;102111.72;;;6.61;57.30
9335;BME280;4706;41.844;26.082;2023-02-15T00:48:11;102114.81;;;6.53;57.69
9335;BME280;4706;41.844;26.082;2023-02-15T00:50:36;102112.06;;;6.41;57.98
9335;BME280;4706;41.844;26.082;2023-02-15T00:53:02;102098.03;;;6.38;57.49
9335;BME280;4706;41.844;26.082;2023-02-15T00:55:27;102112.19;;;6.58;57.69
9335;BME280;4706;41.844;26.082;2023-02-15T00:57:53;102101.84;;;6.60;57.43
9335;BME280;4706;41.844;26.082;2023-02-15T01:00:18;102094.84;;;6.52;57.54
9335;BME280;4706;41.844;26.082;2023-02-15T01:02:44;102099.94;;;6.49;57.92
9335;BME280;4706;41.844;26.082;2023-02-15T01:05:09;102104.69;;;6.53;57.50
9335;BME280;4706;41.844;26.082;2023-02-15T01:07:35;102108.50;;;6.64;57.40
9335;BME280;4706;41.844;26.082;2023-02-15T01:10:00;102110.31;;;6.70;57.71
9335;BME280;4706;41.844;26.082;2023-02-15T01:12:26;102102.81;;;6.66;57.36
9335;BME280;4706;41.844;26.082;2023-02-15T01:14:51;102114.69;;;6.71;57.35
9335;BME280;4706;41.844;26.082;2023-02-15T01:17:17;102099.47;;;6.75;57.69
9335;BME280;4706;41.844;26.082;2023-02-15T01:19:42;102094.47;;;6.72;57.62
9335;BME280;4706;41.844;26.082;2023-02-15T01:22:08;102082.13;;;6.70;57.43
9335;BME280;4706;41.844;26.082;2023-02-15T01:24:33;102105.06;;;6.69;58.11
9335;BME280;4706;41.844;26.082;2023-02-15T01:26:59;102102.09;;;6.70;57.60
9335;BME280;4706;41.844;26.082;2023-02-15T01:29:24;102097.00;;;6.74;58.12
9335;BME280;4706;41.844;26.082;2023-02-15T01:31:50;102100.41;;;6.69;58.13
9335;BME280;4706;41.844;26.082;2023-02-15T01:34:15;102089.72;;;6.68;58.13
9335;BME280;4706;41.844;26.082;2023-02-15T01:36:41;102087.97;;;6.73;57.85
9335;BME280;4706;41.844;26.082;2023-02-15T01:39:06;102078.78;;;6.68;58.09
9335;BME280;4706;41.844;26.082;2023-02-15T01:41:33;102082.00;;;6.76;57.69
9335;BME280;4706;41.844;26.082;2023-02-15T01:44:00;102084.25;;;6.79;58.09
9335;BME280;4706;41.844;26.082;2023-02-15T01:46:45;102077.72;;;6.69;58.06
9335;BME280;4706;41.844;26.082;2023-02-15T01:49:16;102082.59;;;6.78;58.48
9335;BME280;4706;41.844;26.082;2023-02-15T01:51:45;102082.34;;;6.80;58.52
9335;BME280;4706;41.844;26.082;2023-02-15T01:54:34;102085.56;;;6.77;58.76
9335;BME280;4706;41.844;26.082;2023-02-15T01:57:05;102086.28;;;6.84;58.15
9335;BME280;4706;41.844;26.082;2023-02-15T01:59:33;102087.34;;;6.83;58.51
9335;BME280;4706;41.844;26.082;2023-02-15T02:02:00;102088.06;;;6.90;58.24
9335;BME280;4706;41.844;26.082;2023-02-15T02:04:47;102078.94;;;6.85;58.08
9335;BME280;4706;41.844;26.082;2023-02-15T02:07:15;102079.50;;;6.87;58.39
9335;BME280;4706;41.844;26.082;2023-02-15T02:09:43;102070.84;;;6.78;58.46
9335;BME280;4706;41.844;26.082;2023-02-15T02:12:09;102067.50;;;6.76;58.49
9335;BME280;4706;41.844;26.082;2023-02-15T02:14:36;102078.31;;;6.94;58.15
9335;BME280;4706;41.844;26.082;2023-02-15T02:46:53;102116.13;;;6.97;58.22
9335;BME280;4706;41.844;26.082;2023-02-15T02:49:37;102114.13;;;6.93;58.48
9335;BME280;4706;41.844;26.082;2023-02-15T02:54:58;102106.13;;;7.03;58.37
9335;BME280;4706;41.844;26.082;2023-02-15T02:57:24;102097.81;;;6.98;58.43
9335;BME280;4706;41.844;26.082;2023-02-15T02:59:53;102101.72;;;7.02;59.06
9335;BME280;4706;41.844;26.082;2023-02-15T03:02:25;102097.81;;;6.98;58.62
9335;BME280;4706;41.844;26.082;2023-02-15T03:04:59;102106.13;;;7.03;58.48
9335;BME280;4706;41.844;26.082;2023-02-15T03:07:30;102113.50;;;7.02;58.73
9335;BME280;4706;41.844;26.082;2023-02-15T03:09:58;102118.75;;;7.04;58.41
9335;BME280;4706;41.844;26.082;2023-02-15T03:12:32;102124.69;;;7.01;58.63
9335;BME280;4706;41.844;26.082;2023-02-15T03:15:04;102124.59;;;6.96;58.19
9335;BME280;4706;41.844;26.082;2023-02-15T03:17:32;102132.06;;;6.89;58.54
9335;BME280;4706;41.844;26.082;2023-02-15T03:20:02;102121.81;;;6.84;58.45
9335;BME280;4706;41.844;26.082;2023-02-15T03:22:33;102113.25;;;6.80;58.70
9335;BME280;4706;41.844;26.082;2023-02-15T03:27:37;102121.25;;;6.70;58.56
9335;BME280;4706;41.844;26.082;2023-02-15T03:30:06;102118.63;;;6.75;58.15
9335;BME280;4706;41.844;26.082;2023-02-15T03:32:33;102126.56;;;6.77;58.53
9335;BME280;4706;41.844;26.082;2023-02-15T03:35:00;102124.19;;;6.80;58.86
9335;BME280;4706;41.844;26.082;2023-02-15T03:37:59;102122.66;;;6.73;58.38
9335;BME280;4706;41.844;26.082;2023-02-15T03:45:48;102138.97;;;6.79;58.81
9335;BME280;4706;41.844;26.082;2023-02-15T03:48:27;102139.78;;;6.80;58.45
9335;BME280;4706;41.844;26.082;2023-02-15T03:50:57;102136.84;;;6.81;58.35
9335;BME280;4706;41.844;26.082;2023-02-15T03:53:45;102130.63;;;6.74;58.51
9335;BME280;4706;41.844;26.082;2023-02-15T03:56:11;102132.19;;;6.70;58.52
9335;BME280;4706;41.844;26.082;2023-02-15T03:58:37;102144.53;;;6.73;59.14
9335;BME280;4706;41.844;26.082;2023-02-15T04:01:40;102144.53;;;6.73;58.45
9335;BME280;4706;41.844;26.082;2023-02-15T04:04:31;102153.94;;;6.77;59.00
9335;BME280;4706;41.844;26.082;2023-02-15T04:06:57;102155.63;;;6.78;58.68
9335;BME280;4706;41.844;26.082;2023-02-15T04:09:23;102153.09;;;6.76;58.71
9335;BME280;4706;41.844;26.082;2023-02-15T04:12:07;102163.44;;;6.74;58.99
9335;BME280;4706;41.844;26.082;2023-02-15T04:14:33;102166.66;;;6.71;59.11
9335;BME280;4706;41.844;26.082;2023-02-15T04:17:17;102165.19;;;6.57;58.53
9335;BME280;4706;41.844;26.082;2023-02-15T04:19:43;102185.91;;;6.65;58.34
9335;BME280;4706;41.844;26.082;2023-02-15T04:22:27;102193.25;;;6.52;59.18
9335;BME280;4706;41.844;26.082;2023-02-15T04:25:11;102185.16;;;6.57;59.75
9335;BME280;4706;41.844;26.082;2023-02-15T04:27:42;102191.06;;;6.43;60.07
9335;BME280;4706;41.844;26.082;2023-02-15T04:30:10;102182.63;;;6.32;59.97
9335;BME280;4706;41.844;26.082;2023-02-15T04:32:37;102193.06;;;6.36;59.79
9335;BME280;4706;41.844;26.082;2023-02-15T04:35:02;102187.13;;;6.39;59.66
9335;BME280;4706;41.844;26.082;2023-02-15T04:37:28;102204.28;;;6.46;59.87
9335;BME280;4706;41.844;26.082;2023-02-15T04:39:53;102206.97;;;6.34;59.22
9335;BME280;4706;41.844;26.082;2023-02-15T04:42:19;102206.69;;;6.24;59.67
9335;BME280;4706;41.844;26.082;2023-02-15T04:44:44;102208.69;;;6.17;59.72
9335;BME280;4706;41.844;26.082;2023-02-15T04:47:10;102206.31;;;6.20;59.56
9335;BME280;4706;41.844;26.082;2023-02-15T04:49:35;102217.94;;;6.16;59.95
9335;BME280;4706;41.844;26.082;2023-02-15T04:52:01;102227.97;;;6.22;60.26
9335;BME280;4706;41.844;26.082;2023-02-15T04:54:27;102218.31;;;6.19;59.46
9335;BME280;4706;41.844;26.082;2023-02-15T04:56:53;102220.13;;;6.25;60.15
9335;BME280;4706;41.844;26.082;2023-02-15T04:59:18;102223.47;;;6.27;59.79
9335;BME280;4706;41.844;26.082;2023-02-15T05:01:44;102229.03;;;6.21;60.62
9335;BME280;4706;41.844;26.082;2023-02-15T05:04:09;102234.72;;;6.19;60.31
9335;BME280;4706;41.844;26.082;2023-02-15T05:06:35;102240.78;;;6.21;60.12
9335;BME280;4706;41.844;26.082;2023-02-15T05:09:00;102245.56;;;6.26;60.00
9335;BME280;4706;41.844;26.082;2023-02-15T05:11:27;102252.22;;;6.30;59.65
9335;BME280;4706;41.844;26.082;2023-02-15T05:13:52;102254.25;;;6.35;59.39
9335;BME280;4706;41.844;26.082;2023-02-15T05:16:18;102258.00;;;6.40;59.21
9335;BME280;4706;41.844;26.082;2023-02-15T05:18:43;102255.63;;;6.44;59.20
9335;BME280;4706;41.844;26.082;2023-02-15T05:21:09;102256.47;;;6.44;59.31
9335;BME280;4706;41.844;26.082;2023-02-15T05:23:35;102264.88;;;6.43;59.34
9335;BME280;4706;41.844;26.082;2023-02-15T05:26:00;102277.00;;;6.47;58.79
9335;BME280;4706;41.844;26.082;2023-02-15T05:28:47;102278.53;;;6.43;58.91
9335;BME280;4706;41.844;26.082;2023-02-15T05:31:16;102282.25;;;6.48;58.82
9335;BME280;4706;41.844;26.082;2023-02-15T05:33:42;102289.53;;;6.54;58.77
9335;BME280;4706;41.844;26.082;2023-02-15T05:36:09;102286.31;;;6.57;59.07
9335;BME280;4706;41.844;26.082;2023-02-15T05:38:35;102301.19;;;6.62;58.93
9335;BME280;4706;41.844;26.082;2023-02-15T05:41:06;102308.59;;;6.43;59.23
9335;BME280;4706;41.844;26.082;2023-02-15T05:43:32;102299.38;;;6.25;59.41
9335;BME280;4706;41.844;26.082;2023-02-15T05:45:58;102305.22;;;6.29;59.55
9335;BME280;4706;41.844;26.082;2023-02-15T05:48:25;102305.44;;;6.27;59.85
9335;BME280;4706;41.844;26.082;2023-02-15T05:51:10;102308.78;;;6.29;59.63
9335;BME280;4706;41.844;26.082;2023-02-15T05:53:38;102304.28;;;6.35;59.54
9335;BME280;4706;41.844;26.082;2023-02-15T05:56:06;102311.66;;;6.35;59.83
9335;BME280;4706;41.844;26.082;2023-02-15T05:58:34;102322.13;;;6.38;60.24
9335;BME280;4706;41.844;26.082;2023-02-15T06:01:16;102323.22;;;6.37;59.68
9335;BME280;4706;41.844;26.082;2023-02-15T06:03:43;102310.06;;;6.27;60.01
9335;BME280;4706;41.844;26.082;2023-02-15T06:06:08;102308.00;;;6.41;59.91
9335;BME280;4706;41.844;26.082;2023-02-15T06:08:35;102309.28;;;6.56;59.64
9335;BME280;4706;41.844;26.082;2023-02-15T06:11:01;102318.00;;;6.47;59.62
9335;BME280;4706;41.844;26.082;2023-02-15T06:13:26;102325.50;;;6.40;60.05
9335;BME280;4706;41.844;26.082;2023-02-15T06:15:52;102326.38;;;6.52;59.51
9335;BME280;4706;41.844;26.082;2023-02-15T06:18:18;102326.03;;;6.60;59.99
9335;BME280;4706;41.844;26.082;2023-02-15T06:20:45;102325.97;;;6.67;59.65
9335;BME280;4706;41.844;26.082;2023-02-15T06:23:11;102319.88;;;6.65;59.14
9335;BME280;4706;41.844;26.082;2023-02-15T06:25:36;102327.66;;;6.79;59.17
9335;BME280;4706;41.844;26.082;2023-02-15T06:28:01;102327.13;;;6.89;59.08
9335;BME280;4706;41.844;26.082;2023-02-15T06:30:27;102319.75;;;6.90;58.77
9335;BME280;4706;41.844;26.082;2023-02-15T06:32:52;102329.59;;;6.91;58.42
9335;BME280;4706;41.844;26.082;2023-02-15T06:35:18;102325.69;;;6.98;58.30
9335;BME280;4706;41.844;26.082;2023-02-15T06:37:45;102323.22;;;6.97;58.81
9335;BME280;4706;41.844;26.082;2023-02-15T06:40:12;102323.25;;;7.09;58.07
9335;BME280;4706;41.844;26.082;2023-02-15T06:42:37;102325.38;;;7.18;57.44
9335;BME280;4706;41.844;26.082;2023-02-15T06:45:04;102331.75;;;7.30;57.19
9335;BME280;4706;41.844;26.082;2023-02-15T06:47:29;102335.19;;;7.38;57.66
9335;BME280;4706;41.844;26.082;2023-02-15T06:49:55;102341.16;;;7.46;57.70
9335;BME280;4706;41.844;26.082;2023-02-15T06:52:20;102339.13;;;7.53;57.62
9335;BME280;4706;41.844;26.082;2023-02-15T06:54:46;102322.72;;;7.53;57.20
9335;BME280;4706;41.844;26.082;2023-02-15T06:57:11;102323.53;;;7.66;56.54
9335;BME280;4706;41.844;26.082;2023-02-15T06:59:37;102337.94;;;7.73;56.86
9335;BME280;4706;41.844;26.082;2023-02-15T07:02:02;102326.03;;;7.79;56.28
9335;BME280;4706;41.844;26.082;2023-02-15T07:04:29;102336.16;;;7.90;56.62
9335;BME280;4706;41.844;26.082;2023-02-15T07:06:55;102337.34;;;7.94;56.27
9335;BME280;4706;41.844;26.082;2023-02-15T07:09:21;102345.09;;;7.97;56.73
9335;BME280;4706;41.844;26.082;2023-02-15T07:11:47;102338.63;;;8.03;56.35
9335;BME280;4706;41.844;26.082;2023-02-15T07:14:32;102343.63;;;8.07;55.94
9335;BME280;4706;41.844;26.082;2023-02-15T07:16:57;102341.25;;;8.10;55.95
9335;BME280;4706;41.844;26.082;2023-02-15T07:19:23;102336.97;;;8.14;56.07
9335;BME280;4706;41.844;26.082;2023-02-15T07:21:48;102333.84;;;8.22;55.88
9335;BME280;4706;41.844;26.082;2023-02-15T07:26:40;102343.81;;;8.52;55.99
9335;BME280;4706;41.844;26.082;2023-02-15T07:29:06;102345.31;;;8.60;54.94
9335;BME280;4706;41.844;26.082;2023-02-15T07:31:31;102331.03;;;8.58;54.70
9335;BME280;4706;41.844;26.082;2023-02-15T07:33:57;102342.09;;;8.63;54.59
9335;BME280;4706;41.844;26.082;2023-02-15T07:36:22;102346.28;;;8.65;54.18
9335;BME280;4706;41.844;26.082;2023-02-15T07:38:48;102341.50;;;8.61;53.87
9335;BME280;4706;41.844;26.082;2023-02-15T07:41:14;102343.19;;;8.62;53.94
9335;BME280;4706;41.844;26.082;2023-02-15T07:43:43;102339.44;;;8.68;53.67
9335;BME280;4706;41.844;26.082;2023-02-15T07:46:12;102343.88;;;8.69;53.83
9335;BME280;4706;41.844;26.082;2023-02-15T07:48:39;102344.94;;;8.68;54.14
9335;BME280;4706;41.844;26.082;2023-02-15T07:51:07;102349.19;;;8.75;54.33
9335;BME280;4706;41.844;26.082;2023-02-15T07:53:33;102333.88;;;8.91;53.82
9335;BME280;4706;41.844;26.082;2023-02-15T07:56:03;102328.63;;;8.90;53.72
9335;BME280;4706;41.844;26.082;2023-02-15T07:58:29;102331.38;;;8.90;53.82
9335;BME280;4706;41.844;26.082;2023-02-15T08:01:14;102323.81;;;8.97;56.18
9335;BME280;4706;41.844;26.082;2023-02-15T08:03:40;102324.72;;;9.03;54.14
9335;BME280;4706;41.844;26.082;2023-02-15T08:06:05;102328.06;;;9.05;53.77
9335;BME280;4706;41.844;26.082;2023-02-15T08:08:33;102323.22;;;8.95;54.10
9335;BME280;4706;41.844;26.082;2023-02-15T08:13:58;102322.63;;;8.93;61.04
9335;BME280;4706;41.844;26.082;2023-02-15T08:16:36;102322.84;;;9.20;59.08
9335;BME280;4706;41.844;26.082;2023-02-15T08:19:26;102322.41;;;9.28;54.81
9335;BME280;4706;41.844;26.082;2023-02-15T08:21:57;102328.75;;;9.29;55.17
9335;BME280;4706;41.844;26.082;2023-02-15T08:24:25;102325.75;;;9.30;55.08
9335;BME280;4706;41.844;26.082;2023-02-15T08:26:51;102316.00;;;9.39;54.15
9335;BME280;4706;41.844;26.082;2023-02-15T08:29:19;102317.16;;;9.43;54.00
9335;BME280;4706;41.844;26.082;2023-02-15T08:31:46;102312.78;;;9.59;53.86
9335;BME280;4706;41.844;26.082;2023-02-15T08:34:16;102321.91;;;9.82;53.04
9335;BME280;4706;41.844;26.082;2023-02-15T08:36:43;102316.63;;;9.97;52.73
9335;BME280;4706;41.844;26.082;2023-02-15T08:39:10;102311.69;;;9.99;52.30
9335;BME280;4706;41.844;26.082;2023-02-15T08:41:38;102321.41;;;10.07;51.79
9335;BME280;4706;41.844;26.082;2023-02-15T08:44:06;102311.00;;;10.09;51.07
9335;BME280;4706;41.844;26.082;2023-02-15T08:46:34;102318.97;;;10.10;50.62
9335;BME280;4706;41.844;26.082;2023-02-15T08:49:01;102327.66;;;10.02;50.75
9335;BME280;4706;41.844;26.082;2023-02-15T08:51:29;102318.19;;;10.15;50.59
9335;BME280;4706;41.844;26.082;2023-02-15T08:53:58;102325.13;;;10.17;50.07
9335;BME280;4706;41.844;26.082;2023-02-15T08:56:28;102318.41;;;10.08;49.77
9335;BME280;4706;41.844;26.082;2023-02-15T08:58:55;102329.03;;;10.21;49.93
9335;BME280;4706;41.844;26.082;2023-02-15T09:01:27;102321.34;;;10.24;50.08
9335;BME280;4706;41.844;26.082;2023-02-15T09:03:56;102327.22;;;10.27;49.52
9335;BME280;4706;41.844;26.082;2023-02-15T09:06:22;102321.59;;;10.22;49.06
9335;BME280;4706;41.844;26.082;2023-02-15T09:08:49;102313.94;;;10.24;49.23
9335;BME280;4706;41.844;26.082;2023-02-15T09:11:29;102312.50;;;10.38;48.97
9335;BME280;4706;41.844;26.082;2023-02-15T09:14:21;102316.31;;;10.59;48.86
9335;BME280;4706;41.844;26.082;2023-02-15T09:16:47;102307.66;;;10.73;48.08
9335;BME280;4706;41.844;26.082;2023-02-15T09:19:16;102309.34;;;10.79;47.35
9335;BME280;4706;41.844;26.082;2023-02-15T09:21:42;102308.66;;;10.93;48.37
9335;BME280;4706;41.844;26.082;2023-02-15T09:24:10;102306.66;;;11.16;47.13
9335;BME280;4706;41.844;26.082;2023-02-15T09:26:39;102306.31;;;11.39;45.89
9335;BME280;4706;41.844;26.082;2023-02-15T09:29:06;102294.84;;;11.53;44.68
9335;BME280;4706;41.844;26.082;2023-02-15T09:31:36;102291.88;;;11.64;44.46
9335;BME280;4706;41.844;26.082;2023-02-15T09:34:02;102297.13;;;12.08;44.38
9335;BME280;4706;41.844;26.082;2023-02-15T09:36:31;102290.13;;;12.53;43.70
9335;BME280;4706;41.844;26.082;2023-02-15T09:39:01;102288.81;;;12.97;42.09
9335;BME280;4706;41.844;26.082;2023-02-15T09:53:19;102281.69;;;14.27;38.61
9335;BME280;4706;41.844;26.082;2023-02-15T09:56:57;102276.03;;;14.47;38.16
9335;BME280;4706;41.844;26.082;2023-02-15T09:59:08;102273.41;;;14.76;38.08
9335;BME280;4706;41.844;26.082;2023-02-15T10:13:21;102242.88;;;15.45;35.66
9335;BME280;4706;41.844;26.082;2023-02-15T10:18:37;102238.47;;;15.44;36.42
9335;BME280;4706;41.844;26.082;2023-02-15T10:26:36;102212.59;;;15.77;34.44
9335;BME280;4706;41.844;26.082;2023-02-15T10:29:33;102223.53;;;15.69;34.60
9335;BME280;4706;41.844;26.082;2023-02-15T10:32:25;102217.81;;;15.31;34.93
9335;BME280;4706;41.844;26.082;2023-02-15T10:40:46;102215.28;;;15.00;36.42
9335;BME280;4706;41.844;26.082;2023-02-15T10:44:00;102210.13;;;14.89;35.96
9335;BME280;4706;41.844;26.082;2023-02-15T10:51:56;102205.72;;;14.53;37.53
9335;BME280;4706;41.844;26.082;2023-02-15T10:57:23;102208.19;;;14.89;37.08
9335;BME280;4706;41.844;26.082;2023-02-15T10:59:58;102202.75;;;15.08;35.91
9335;BME280;4706;41.844;26.082;2023-02-15T11:05:38;102196.06;;;15.91;35.00
9335;BME280;4706;41.844;26.082;2023-02-15T11:08:09;102192.06;;;16.21;34.54
9335;BME280;4706;41.844;26.082;2023-02-15T11:10:43;102193.47;;;16.38;33.67
9335;BME280;4706;41.844;26.082;2023-02-15T11:13:14;102178.22;;;16.35;33.87
9335;BME280;4706;41.844;26.082;2023-02-15T11:15:53;102175.31;;;16.45;33.19
9335;BME280;4706;41.844;26.082;2023-02-15T11:23:43;102168.13;;;17.10;32.94
9335;BME280;4706;41.844;26.082;2023-02-15T11:26:34;102169.16;;;17.00;32.25
9335;BME280;4706;41.844;26.082;2023-02-15T11:29:11;102177.28;;;16.96;32.47
9335;BME280;4706;41.844;26.082;2023-02-15T11:31:46;102164.91;;;17.03;31.89
9335;BME280;4706;41.844;26.082;2023-02-15T11:36:43;102160.66;;;16.91;32.17
9335;BME280;4706;41.844;26.082;2023-02-15T11:39:12;102164.63;;;17.04;31.93
9335;BME280;4706;41.844;26.082;2023-02-15T11:41:52;102161.25;;;17.21;31.37
9335;BME280;4706;41.844;26.082;2023-02-15T11:44:26;102161.97;;;17.40;30.44
9335;BME280;4706;41.844;26.082;2023-02-15T11:46:53;102159.88;;;17.05;30.81
9335;BME280;4706;41.844;26.082;2023-02-15T11:49:30;102155.53;;;16.98;30.97
9335;BME280;4706;41.844;26.082;2023-02-15T11:51:57;102154.06;;;16.87;31.72
9335;BME280;4706;41.844;26.082;2023-02-15T11:54:29;102150.94;;;17.08;31.62
9335;BME280;4706;41.844;26.082;2023-02-15T11:57:04;102138.19;;;17.20;31.38
9335;BME280;4706;41.844;26.082;2023-02-15T11:59:37;102131.59;;;17.44;30.97
9335;BME280;4706;41.844;26.082;2023-02-15T12:02:17;102140.44;;;17.73;31.04
9335;BME280;4706;41.844;26.082;2023-02-15T12:04:48;102132.41;;;17.58;30.20
9335;BME280;4706;41.844;26.082;2023-02-15T12:07:52;102137.66;;;17.60;31.00
9335;BME280;4706;41.844;26.082;2023-02-15T12:10:24;102135.81;;;17.55;30.77
9335;BME280;4706;41.844;26.082;2023-02-15T12:13:15;102130.16;;;17.60;30.44
9335;BME280;4706;41.844;26.082;2023-02-15T12:15:46;102132.00;;;17.79;29.88
9335;BME280;4706;41.844;26.082;2023-02-15T12:21:08;102123.81;;;17.96;29.96
9335;BME280;4706;41.844;26.082;2023-02-15T12:23:50;102124.72;;;18.05;29.87
9335;BME280;4706;41.844;26.082;2023-02-15T12:26:25;102102.44;;;18.05;30.04
9335;BME280;4706;41.844;26.082;2023-02-15T12:28:51;102117.47;;;18.18;29.40
9335;BME280;4706;41.844;26.082;2023-02-15T12:31:24;102113.28;;;18.07;28.44
9335;BME280;4706;41.844;26.082;2023-02-15T12:33:53;102110.66;;;17.88;29.32
9335;BME280;4706;41.844;26.082;2023-02-15T12:36:32;102112.50;;;17.92;29.63
9335;BME280;4706;41.844;26.082;2023-02-15T12:41:44;102109.69;;;17.92;29.80
9335;BME280;4706;41.844;26.082;2023-02-15T12:44:19;102108.00;;;17.83;29.83
9335;BME280;4706;41.844;26.082;2023-02-15T12:47:18;102108.06;;;17.91;29.73
9335;BME280;4706;41.844;26.082;2023-02-15T12:49:45;102109.50;;;17.89;30.16
9335;BME280;4706;41.844;26.082;2023-02-15T12:52:28;102098.50;;;17.84;29.08
9335;BME280;4706;41.844;26.082;2023-02-15T12:54:54;102107.16;;;17.68;29.75
9335;BME280;4706;41.844;26.082;2023-02-15T12:57:27;102103.44;;;17.73;29.51
9335;BME280;4706;41.844;26.082;2023-02-15T12:59:59;102112.84;;;17.50;30.22
9335;BME280;4706;41.844;26.082;2023-02-15T13:02:25;102115.91;;;17.48;30.69
9335;BME280;4706;41.844;26.082;2023-02-15T13:04:52;102117.69;;;17.58;30.40
9335;BME280;4706;41.844;26.082;2023-02-15T13:07:19;102110.88;;;17.50;30.29
9335;BME280;4706;41.844;26.082;2023-02-15T13:09:46;102104.69;;;17.26;30.84
9335;BME280;4706;41.844;26.082;2023-02-15T13:12:23;102107.19;;;17.27;30.73
9335;BME280;4706;41.844;26.082;2023-02-15T13:14:53;102107.41;;;17.31;30.40
9335;BME280;4706;41.844;26.082;2023-02-15T13:17:40;102097.72;;;17.42;29.84
9335;BME280;4706;41.844;26.082;2023-02-15T13:20:20;102100.28;;;17.38;29.82
9335;BME280;4706;41.844;26.082;2023-02-15T13:22:53;102104.09;;;17.42;30.08
9335;BME280;4706;41.844;26.082;2023-02-15T13:25:25;102101.72;;;17.50;30.35
9335;BME280;4706;41.844;26.082;2023-02-15T13:27:54;102092.13;;;17.56;29.86
9335;BME280;4706;41.844;26.082;2023-02-15T13:30:26;102090.28;;;17.51;29.79
9335;BME280;4706;41.844;26.082;2023-02-15T13:32:57;102101.59;;;17.41;30.14
9335;BME280;4706;41.844;26.082;2023-02-15T13:35:29;102103.78;;;17.30;30.06
9335;BME280;4706;41.844;26.082;2023-02-15T13:38:19;102094.41;;;17.12;30.55
9335;BME280;4706;41.844;26.082;2023-02-15T13:51:25;102097.69;;;16.35;31.11
9335;BME280;4706;41.844;26.082;2023-02-15T14:07:39;102109.06;;;15.58;33.01
9335;BME280;4706;41.844;26.082;2023-02-15T14:10:31;102106.28;;;15.58;33.10
9335;BME280;4706;41.844;26.082;2023-02-15T14:24:05;102102.16;;;15.07;34.04
9335;BME280;4706;41.844;26.082;2023-02-15T14:26:45;102098.47;;;14.93;33.91
9335;BME280;4706;41.844;26.082;2023-02-15T14:32:03;102097.50;;;14.79;34.16
9335;BME280;4706;41.844;26.082;2023-02-15T14:37:11;102103.66;;;14.71;34.14
9335;BME280;4706;41.844;26.082;2023-02-15T14:39:50;102098.28;;;14.55;34.67
9335;BME280;4706;41.844;26.082;2023-02-15T14:45:42;102098.88;;;14.42;34.80
9335;BME280;4706;41.844;26.082;2023-02-15T14:51:01;102095.16;;;14.23;35.12
9335;BME280;4706;41.844;26.082;2023-02-15T14:58:32;102102.97;;;14.16;35.19
9335;BME280;4706;41.844;26.082;2023-02-15T15:01:09;102098.09;;;13.97;35.30
9335;BME280;4706;41.844;26.082;2023-02-15T15:03:36;102101.19;;;13.96;35.39
9335;BME280;4706;41.844;26.082;2023-02-15T15:06:24;102102.25;;;13.95;35.21
9335;BME280;4706;41.844;26.082;2023-02-15T15:08:54;102108.91;;;13.94;35.16
9335;BME280;4706;41.844;26.082;2023-02-15T15:13:58;102113.69;;;13.83;35.82
9335;BME280;4706;41.844;26.082;2023-02-15T15:16:31;102104.34;;;13.74;36.06
9335;BME280;4706;41.844;26.082;2023-02-15T15:18:58;102091.13;;;13.60;36.27
9335;BME280;4706;41.844;26.082;2023-02-15T15:27:41;102100.03;;;13.47;36.92
9335;BME280;4706;41.844;26.082;2023-02-15T15:35:50;102109.19;;;13.43;37.42
9335;BME280;4706;41.844;26.082;2023-02-15T15:49:28;102118.63;;;13.31;37.70
9335;BME280;4706;41.844;26.082;2023-02-15T15:52:00;102119.72;;;13.30;37.51
9335;BME280;4706;41.844;26.082;2023-02-15T15:54:26;102124.97;;;13.27;37.66
9335;BME280;4706;41.844;26.082;2023-02-15T15:57:03;102126.91;;;13.21;38.15
9335;BME280;4706;41.844;26.082;2023-02-15T15:59:33;102123.31;;;13.16;37.96
9335;BME280;4706;41.844;26.082;2023-02-15T16:02:12;102125.28;;;13.10;38.39
9335;BME280;4706;41.844;26.082;2023-02-15T16:04:40;102118.13;;;12.99;38.51
9335;BME280;4706;41.844;26.082;2023-02-15T16:09:52;102126.13;;;12.85;38.93
9335;BME280;4706;41.844;26.082;2023-02-15T16:12:18;102139.41;;;12.83;39.15
9335;BME280;4706;41.844;26.082;2023-02-15T16:14:45;102138.59;;;12.72;39.41
9335;BME280;4706;41.844;26.082;2023-02-15T16:17:23;102135.81;;;12.67;39.62
9335;BME280;4706;41.844;26.082;2023-02-15T16:19:49;102144.38;;;12.66;39.84
9335;BME280;4706;41.844;26.082;2023-02-15T16:22:22;102146.84;;;12.67;40.19
9335;BME280;4706;41.844;26.082;2023-02-15T16:27:38;102155.97;;;12.62;40.56
9335;BME280;4706;41.844;26.082;2023-02-15T16:30:34;102156.22;;;12.56;40.81
9335;BME280;4706;41.844;26.082;2023-02-15T16:33:06;102157.59;;;12.23;41.46
9335;BME280;4706;41.844;26.082;2023-02-15T16:35:32;102144.59;;;12.13;41.81
9335;BME280;4706;41.844;26.082;2023-02-15T16:37:57;102154.81;;;12.18;41.31
9335;BME280;4706;41.844;26.082;2023-02-15T16:42:54;102163.78;;;11.77;41.87